createdAt,value
2022-12-22T00:01:22.544Z,3.10
2022-12-22T00:04:28.726Z,3.60
2022-12-22T00:07:33.529Z,2.10
2022-12-22T00:10:38.274Z,3.20
2022-12-22T00:13:42.843Z,2.50
2022-12-22T00:16:52.135Z,8.30
2022-12-22T00:19:57.271Z,8.20
2022-12-22T00:23:02.295Z,8.80
2022-12-22T00:26:07.067Z,12.10
2022-12-22T00:29:12.060Z,8.50
2022-12-22T00:32:16.893Z,6.40
2022-12-22T00:35:21.982Z,6.10
2022-12-22T00:38:38.526Z,6.10
2022-12-22T00:41:43.826Z,6.00
2022-12-22T00:44:48.439Z,5.60
2022-12-22T00:47:53.308Z,4.10
2022-12-22T00:50:58.077Z,5.00
2022-12-22T00:54:02.498Z,6.00
2022-12-22T00:57:07.034Z,6.60
2022-12-22T01:00:11.803Z,5.60
2022-12-22T01:03:17.331Z,4.60
2022-12-22T01:06:22.148Z,4.30
2022-12-22T01:09:28.270Z,4.10
2022-12-22T01:12:37.960Z,2.70
2022-12-22T01:15:43.279Z,4.50
2022-12-22T01:18:47.967Z,3.40
2022-12-22T01:21:53.248Z,3.90
2022-12-22T01:24:57.887Z,3.00
2022-12-22T01:28:02.834Z,3.80
2022-12-22T01:31:08.416Z,3.50
2022-12-22T01:34:13.499Z,5.70
2022-12-22T01:37:18.162Z,4.90
2022-12-22T01:40:23.414Z,6.20
2022-12-22T01:43:39.390Z,5.30
2022-12-22T01:46:49.014Z,4.40
2022-12-22T01:49:59.668Z,4.20
2022-12-22T01:53:04.172Z,5.10
2022-12-22T01:56:09.095Z,5.10
2022-12-22T01:59:16.210Z,4.60
2022-12-22T02:02:24.218Z,3.50
2022-12-22T02:05:29.598Z,3.20
2022-12-22T02:08:40.638Z,3.80
2022-12-22T02:12:20.027Z,3.80
2022-12-22T02:15:30.686Z,3.90
2022-12-22T02:18:58.238Z,2.80
2022-12-22T02:22:25.224Z,3.30
2022-12-22T02:25:35.607Z,2.40
2022-12-22T02:28:40.407Z,3.40
2022-12-22T02:31:45.867Z,3.90
2022-12-22T02:34:50.799Z,4.30
2022-12-22T02:38:22.978Z,4.50
2022-12-22T02:41:50.860Z,4.00
2022-12-22T02:45:19.844Z,3.30
2022-12-22T02:48:57.282Z,3.50
2022-12-22T02:52:05.354Z,3.70
2022-12-22T02:55:10.111Z,3.60
2022-12-22T02:58:17.812Z,3.10
2022-12-22T03:01:23.156Z,3.60
2022-12-22T03:04:28.670Z,3.00
2022-12-22T03:07:33.844Z,3.40
2022-12-22T03:10:39.167Z,3.10
2022-12-22T03:13:43.829Z,3.80
2022-12-22T03:16:48.412Z,3.40
2022-12-22T03:19:52.973Z,4.00
2022-12-22T03:22:57.399Z,4.60
2022-12-22T03:25:55.345Z,4.30
2022-12-22T03:28:41.910Z,5.00
2022-12-22T03:31:28.620Z,5.10
2022-12-22T03:34:15.244Z,5.40
2022-12-22T03:37:01.904Z,6.10
2022-12-22T03:39:48.543Z,5.50
2022-12-22T03:42:53.402Z,5.80
2022-12-22T03:45:58.259Z,6.40
2022-12-22T03:48:45.005Z,5.90
2022-12-22T03:51:32.813Z,5.50
2022-12-22T03:54:23.330Z,5.70
2022-12-22T03:57:09.822Z,5.20
2022-12-22T03:59:56.279Z,4.50
2022-12-22T04:02:42.639Z,5.80
2022-12-22T04:05:28.788Z,5.50
2022-12-22T04:08:15.047Z,5.00
2022-12-22T04:11:19.768Z,5.50
2022-12-22T04:14:06.345Z,4.80
2022-12-22T04:16:52.561Z,4.10
2022-12-22T04:19:38.840Z,4.40
2022-12-22T04:22:25.367Z,4.20
2022-12-22T04:25:11.536Z,4.60
2022-12-22T04:27:58.027Z,4.70
2022-12-22T04:30:44.673Z,4.60
2022-12-22T04:33:31.158Z,4.90
2022-12-22T04:36:17.832Z,5.00
2022-12-22T04:39:04.510Z,4.10
2022-12-22T04:41:51.135Z,4.10
2022-12-22T04:44:37.197Z,3.90
2022-12-22T04:47:23.814Z,4.90
2022-12-22T04:50:10.581Z,4.80
2022-12-22T04:52:57.038Z,6.10
2022-12-22T04:55:55.943Z,11.00
2022-12-22T04:58:42.417Z,6.60
2022-12-22T05:01:28.619Z,5.80
2022-12-22T05:04:18.771Z,5.40
2022-12-22T05:07:09.840Z,5.90
2022-12-22T05:09:56.246Z,5.90
2022-12-22T05:12:54.524Z,6.00
2022-12-22T05:15:40.731Z,6.20
2022-12-22T05:18:27.090Z,8.30
2022-12-22T05:21:15.110Z,11.00
2022-12-22T05:24:01.690Z,7.10
2022-12-22T05:26:48.340Z,8.50
2022-12-22T05:29:34.746Z,8.90
2022-12-22T05:32:21.676Z,10.70
2022-12-22T05:35:08.457Z,6.60
2022-12-22T05:37:54.376Z,6.10
2022-12-22T05:40:40.689Z,5.50
2022-12-22T05:43:26.899Z,4.90
2022-12-22T05:46:13.176Z,3.40
2022-12-22T05:48:59.612Z,2.70
2022-12-22T05:51:46.281Z,5.30
2022-12-22T05:54:32.727Z,5.20
2022-12-22T05:57:19.079Z,3.00
2022-12-22T06:00:10.555Z,3.10
2022-12-22T06:02:57.197Z,4.00
2022-12-22T06:05:43.282Z,4.10
2022-12-22T06:08:29.988Z,3.10
2022-12-22T06:11:18.355Z,8.90
2022-12-22T06:14:04.858Z,8.90
2022-12-22T06:16:51.243Z,8.10
2022-12-22T06:19:37.687Z,6.70
2022-12-22T06:22:24.162Z,6.60
2022-12-22T06:25:17.299Z,6.30
2022-12-22T06:28:04.738Z,6.30
2022-12-22T06:30:51.155Z,6.20
2022-12-22T06:33:37.429Z,6.80
2022-12-22T06:36:23.978Z,6.40
2022-12-22T06:39:10.307Z,6.30
2022-12-22T06:42:15.168Z,6.70
2022-12-22T06:45:01.386Z,6.10
2022-12-22T06:47:48.034Z,6.20
2022-12-22T06:50:34.740Z,6.60
2022-12-22T06:53:21.268Z,4.50
2022-12-22T06:56:08.021Z,4.80
2022-12-22T06:58:54.572Z,5.20
2022-12-22T07:01:42.709Z,5.80
2022-12-22T07:04:30.835Z,7.90
2022-12-22T07:07:17.493Z,10.40
2022-12-22T07:10:04.811Z,12.00
2022-12-22T07:12:51.046Z,12.00
2022-12-22T07:15:37.628Z,11.60
2022-12-22T07:18:24.403Z,9.20
2022-12-22T07:21:12.044Z,8.00
2022-12-22T07:23:58.809Z,7.50
2022-12-22T07:26:45.237Z,9.30
2022-12-22T07:29:31.721Z,9.60
2022-12-22T07:32:18.072Z,8.90
2022-12-22T07:35:05.931Z,5.30
2022-12-22T07:37:52.485Z,7.20
2022-12-22T07:40:42.139Z,4.90
2022-12-22T07:43:29.239Z,5.20
2022-12-22T07:46:15.604Z,7.00
2022-12-22T07:49:21.395Z,6.50
2022-12-22T07:52:07.823Z,6.70
2022-12-22T07:54:54.203Z,5.50
2022-12-22T07:57:40.999Z,5.20
2022-12-22T08:00:27.759Z,5.60
2022-12-22T08:03:14.647Z,4.70
2022-12-22T08:06:04.562Z,6.00
2022-12-22T08:08:51.077Z,3.90
2022-12-22T08:11:37.469Z,3.70
2022-12-22T08:14:23.794Z,4.40
2022-12-22T08:17:10.017Z,4.80
2022-12-22T08:19:56.517Z,2.60
2022-12-22T08:22:42.804Z,5.00
2022-12-22T08:25:29.845Z,4.20
2022-12-22T08:28:17.932Z,4.10
2022-12-22T08:31:04.695Z,4.30
2022-12-22T08:33:51.167Z,5.00
2022-12-22T08:36:40.207Z,4.50
2022-12-22T08:39:27.701Z,4.30
2022-12-22T08:42:14.688Z,5.50
2022-12-22T08:45:01.046Z,3.80
2022-12-22T08:47:47.503Z,5.50
2022-12-22T08:50:33.984Z,4.30
2022-12-22T08:53:54.149Z,4.70
2022-12-22T08:56:26.715Z,5.30
2022-12-22T08:59:13.296Z,5.90
2022-12-22T09:02:05.067Z,2.80
2022-12-22T09:04:51.438Z,5.10
2022-12-22T09:07:37.762Z,4.50
2022-12-22T09:10:23.773Z,3.20
2022-12-22T09:13:10.102Z,4.50
2022-12-22T09:15:56.311Z,4.60
2022-12-22T09:18:42.521Z,2.40
2022-12-22T09:21:30.100Z,4.70
2022-12-22T09:24:16.693Z,2.50
2022-12-22T09:27:03.583Z,2.40
2022-12-22T09:29:49.663Z,4.10
2022-12-22T09:32:35.946Z,3.90
2022-12-22T09:35:22.444Z,4.30
2022-12-22T09:38:08.505Z,7.40
2022-12-22T09:40:57.771Z,3.60
2022-12-22T09:43:44.110Z,3.50
2022-12-22T09:46:32.858Z,5.10
2022-12-22T09:49:19.526Z,3.70
2022-12-22T09:52:06.161Z,4.70
2022-12-22T09:54:52.478Z,3.50
2022-12-22T09:57:39.043Z,4.50
2022-12-22T10:00:27.235Z,5.00
2022-12-22T10:03:25.758Z,2.30
2022-12-22T10:06:20.453Z,5.00
2022-12-22T10:09:48.054Z,3.10
2022-12-22T10:15:17.000Z,4.30
2022-12-22T10:18:13.357Z,3.10
2022-12-22T10:21:06.045Z,4.00
2022-12-22T10:23:52.435Z,2.40
2022-12-22T10:26:38.681Z,3.10
2022-12-22T10:29:25.111Z,2.50
2022-12-22T10:32:13.576Z,4.00
2022-12-22T10:35:00.136Z,3.00
2022-12-22T10:37:46.403Z,3.70
2022-12-22T10:40:33.574Z,4.60
2022-12-22T10:43:30.276Z,3.60
2022-12-22T10:46:17.032Z,3.20
2022-12-22T10:49:23.813Z,3.90
2022-12-22T10:52:33.319Z,4.80
2022-12-22T10:55:25.884Z,2.60
2022-12-22T10:58:17.163Z,4.40
2022-12-22T11:01:04.342Z,4.30
2022-12-22T11:03:51.045Z,4.00
2022-12-22T11:06:37.280Z,4.70
2022-12-22T11:09:33.552Z,4.30
2022-12-22T11:12:23.300Z,2.40
2022-12-22T11:15:27.499Z,2.30
2022-12-22T11:18:48.577Z,4.40
2022-12-22T11:21:49.622Z,3.90
2022-12-22T11:24:53.962Z,4.60
2022-12-22T11:27:46.192Z,3.00
2022-12-22T11:30:50.711Z,4.90
2022-12-22T11:33:43.419Z,3.90
2022-12-22T11:37:02.486Z,4.40
2022-12-22T11:40:35.190Z,3.70
2022-12-22T11:43:30.881Z,2.40
2022-12-22T11:46:29.323Z,2.50
2022-12-22T11:49:31.916Z,2.80
2022-12-22T11:52:45.645Z,3.00
2022-12-22T11:58:42.418Z,4.10
2022-12-22T12:01:31.668Z,3.80
2022-12-22T12:04:27.403Z,3.60
2022-12-22T12:07:41.271Z,4.00
2022-12-22T12:10:29.058Z,5.00
2022-12-22T12:13:50.703Z,3.80
2022-12-22T12:16:52.551Z,5.30
2022-12-22T12:19:49.846Z,5.80
2022-12-22T12:23:11.250Z,4.40
2022-12-22T12:26:22.393Z,3.20
2022-12-22T12:29:20.003Z,4.90
2022-12-22T12:32:12.058Z,2.70
2022-12-22T12:35:04.114Z,3.80
2022-12-22T12:37:52.287Z,3.00
2022-12-22T12:40:41.069Z,3.10
2022-12-22T12:43:27.700Z,2.50
2022-12-22T12:46:42.066Z,2.40
2022-12-22T12:49:34.465Z,3.60
2022-12-22T12:52:38.859Z,2.30
2022-12-22T12:55:40.519Z,3.10
2022-12-22T12:58:35.831Z,2.80
2022-12-22T13:01:28.340Z,3.10
2022-12-22T13:04:53.443Z,2.70
2022-12-22T13:08:17.109Z,2.60
2022-12-22T13:11:06.280Z,2.50
2022-12-22T13:13:53.403Z,1.60
2022-12-22T13:16:39.811Z,2.10
2022-12-22T13:19:26.945Z,2.00
2022-12-22T13:22:13.462Z,2.00
2022-12-22T13:24:59.795Z,2.20
2022-12-22T13:27:46.254Z,1.60
2022-12-22T13:30:32.912Z,1.90
2022-12-22T13:33:21.064Z,2.20
2022-12-22T13:36:08.793Z,2.00
2022-12-22T13:39:06.375Z,2.20
2022-12-22T13:41:53.882Z,2.30
2022-12-22T13:44:40.239Z,1.70
2022-12-22T13:47:26.383Z,2.40
2022-12-22T13:50:17.972Z,2.80
2022-12-22T13:53:06.971Z,3.50
2022-12-22T13:55:53.761Z,2.70
2022-12-22T13:58:41.201Z,2.50
2022-12-22T14:01:27.801Z,2.60
2022-12-22T14:04:14.453Z,1.40
2022-12-22T14:07:14.239Z,2.80
2022-12-22T14:10:00.998Z,2.40
2022-12-22T14:12:47.545Z,3.20
2022-12-22T14:15:33.902Z,3.40
2022-12-22T14:18:21.543Z,3.10
2022-12-22T14:21:08.250Z,3.00
2022-12-22T14:23:54.838Z,3.20
2022-12-22T14:26:41.200Z,2.50
2022-12-22T14:29:27.950Z,2.70
2022-12-22T14:32:41.774Z,2.10
2022-12-22T14:35:29.394Z,1.90
2022-12-22T14:38:25.855Z,2.10
2022-12-22T14:41:43.045Z,2.80
2022-12-22T14:44:33.706Z,3.70
2022-12-22T14:47:24.695Z,4.40
2022-12-22T14:50:17.372Z,3.70
2022-12-22T14:53:05.013Z,2.80
2022-12-22T14:55:51.386Z,2.40
2022-12-22T14:58:39.834Z,2.50
2022-12-22T15:01:30.264Z,2.40
2022-12-22T15:04:17.951Z,1.80
2022-12-22T15:07:06.575Z,1.90
2022-12-22T15:12:59.493Z,2.20
2022-12-22T15:15:46.212Z,2.70
2022-12-22T15:18:35.149Z,2.50
2022-12-22T15:21:23.019Z,2.90
2022-12-22T15:24:12.852Z,2.40
2022-12-22T15:26:59.368Z,2.80
2022-12-22T15:29:45.709Z,2.60
2022-12-22T15:32:37.702Z,3.00
2022-12-22T15:35:29.641Z,1.90
2022-12-22T15:38:21.141Z,1.70
2022-12-22T15:41:07.805Z,2.50
2022-12-22T15:43:57.679Z,2.30
2022-12-22T15:46:46.368Z,3.10
2022-12-22T15:49:32.563Z,2.90
2022-12-22T15:52:19.075Z,3.30
2022-12-22T15:55:06.030Z,5.50
2022-12-22T15:57:54.451Z,3.90
2022-12-22T16:00:41.217Z,4.00
2022-12-22T16:03:27.962Z,4.20
2022-12-22T16:06:15.536Z,5.30
2022-12-22T16:09:02.109Z,6.40
2022-12-22T16:11:49.061Z,3.30
2022-12-22T16:14:42.309Z,3.70
2022-12-22T16:17:32.805Z,3.00
2022-12-22T16:20:19.536Z,2.60
2022-12-22T16:23:06.485Z,4.00
2022-12-22T16:26:00.597Z,2.70
2022-12-22T16:28:48.183Z,3.90
2022-12-22T16:31:34.912Z,4.50
2022-12-22T16:34:21.338Z,3.80
2022-12-22T16:37:07.454Z,4.30
2022-12-22T16:39:54.085Z,3.00
2022-12-22T16:45:44.943Z,3.50
2022-12-22T16:48:55.068Z,2.80
2022-12-22T16:51:46.270Z,3.00
2022-12-22T16:54:33.101Z,2.90
2022-12-22T16:57:19.810Z,2.00
2022-12-22T17:00:06.927Z,2.30
2022-12-22T17:02:56.336Z,2.80
2022-12-22T17:05:48.035Z,4.50
2022-12-22T17:08:35.098Z,4.80
2022-12-22T17:11:23.145Z,3.90
2022-12-22T17:14:28.102Z,3.40
2022-12-22T17:17:16.577Z,2.80
2022-12-22T17:20:03.459Z,2.20
2022-12-22T17:22:59.128Z,3.50
2022-12-22T17:25:45.585Z,1.80
2022-12-22T17:28:32.610Z,2.50
2022-12-22T17:31:20.551Z,3.50
2022-12-22T17:34:14.436Z,2.60
2022-12-22T17:37:00.801Z,3.20
2022-12-22T17:39:48.380Z,3.40
2022-12-22T17:42:34.903Z,3.60
2022-12-22T17:45:21.488Z,3.30
2022-12-22T17:48:08.146Z,2.50
2022-12-22T17:50:54.812Z,1.70
2022-12-22T17:53:41.357Z,2.60
2022-12-22T17:56:28.114Z,4.10
2022-12-22T17:59:14.313Z,2.40
2022-12-22T18:02:01.657Z,3.80
2022-12-22T18:04:48.428Z,2.50
2022-12-22T18:07:43.230Z,4.40
2022-12-22T18:10:35.135Z,3.00
2022-12-22T18:13:22.804Z,2.60
2022-12-22T18:16:13.035Z,3.80
2022-12-22T18:18:59.414Z,4.90
2022-12-22T18:21:46.058Z,4.60
2022-12-22T18:24:32.618Z,3.90
2022-12-22T18:27:19.307Z,5.20
2022-12-22T18:30:25.259Z,3.40
2022-12-22T18:33:11.804Z,3.20
2022-12-22T18:35:58.494Z,3.30
2022-12-22T18:38:44.750Z,4.70
2022-12-22T18:41:33.002Z,4.70
2022-12-22T18:44:19.504Z,4.50
2022-12-22T18:47:06.263Z,4.90
2022-12-22T18:49:52.962Z,5.20
2022-12-22T18:52:39.473Z,7.20
2022-12-22T18:55:30.361Z,3.40
2022-12-22T18:58:16.733Z,6.00
2022-12-22T19:01:03.864Z,5.80
2022-12-22T19:03:50.785Z,4.90
2022-12-22T19:06:37.978Z,6.70
2022-12-22T19:09:26.998Z,3.50
2022-12-22T19:12:14.081Z,5.40
2022-12-22T19:15:04.073Z,4.60
2022-12-22T19:17:50.937Z,4.10
2022-12-22T19:20:37.646Z,4.10
2022-12-22T19:23:24.896Z,4.20
2022-12-22T19:26:24.566Z,4.00
2022-12-22T19:29:11.323Z,2.80
2022-12-22T19:31:57.926Z,2.70
2022-12-22T19:34:44.229Z,3.00
2022-12-22T19:37:30.672Z,2.60
2022-12-22T19:40:17.863Z,3.20
2022-12-22T19:43:04.076Z,2.80
2022-12-22T19:45:52.078Z,2.90
2022-12-22T19:48:38.277Z,2.70
2022-12-22T19:51:24.779Z,3.10
2022-12-22T19:54:11.709Z,3.50
2022-12-22T19:56:57.693Z,2.30
2022-12-22T19:59:48.534Z,3.00
2022-12-22T20:02:35.220Z,4.30
2022-12-22T20:05:22.264Z,3.70
2022-12-22T20:08:08.841Z,3.60
2022-12-22T20:10:58.621Z,3.90
2022-12-22T20:13:46.227Z,4.40
2022-12-22T20:16:32.811Z,3.50
2022-12-22T20:19:19.014Z,4.50
2022-12-22T20:22:05.306Z,4.80
2022-12-22T20:24:51.584Z,4.60
2022-12-22T20:27:37.959Z,3.90
2022-12-22T20:30:27.613Z,3.30
2022-12-22T20:33:15.483Z,4.20
2022-12-22T20:36:01.932Z,4.60
2022-12-22T20:38:48.429Z,5.50
2022-12-22T20:41:34.879Z,4.90
2022-12-22T20:44:21.743Z,4.60
2022-12-22T20:47:12.890Z,5.00
2022-12-22T20:50:01.283Z,2.30
2022-12-22T20:52:48.254Z,3.00
2022-12-22T20:55:34.867Z,5.60
2022-12-22T20:58:23.709Z,6.90
2022-12-22T21:01:10.293Z,3.60
2022-12-22T21:03:56.878Z,5.30
2022-12-22T21:06:53.502Z,4.10
2022-12-22T21:09:41.685Z,5.50
2022-12-22T21:12:27.826Z,6.20
2022-12-22T21:15:17.991Z,4.70
2022-12-22T21:18:06.804Z,4.10
2022-12-22T21:20:53.228Z,5.70
2022-12-22T21:23:39.743Z,4.40
2022-12-22T21:26:36.210Z,3.60
2022-12-22T21:29:24.398Z,8.60
2022-12-22T21:32:14.875Z,4.60
2022-12-22T21:35:06.038Z,5.30
2022-12-22T21:37:54.713Z,4.60
2022-12-22T21:40:41.720Z,4.50
2022-12-22T21:43:28.246Z,4.10
2022-12-22T21:46:14.735Z,4.10
2022-12-22T21:49:01.151Z,4.50
2022-12-22T21:51:48.299Z,3.80
2022-12-22T21:54:34.435Z,5.40
2022-12-22T21:57:20.736Z,4.50
2022-12-22T22:00:11.725Z,3.90
2022-12-22T22:05:44.337Z,6.20
2022-12-22T22:08:30.604Z,3.40
2022-12-22T22:11:21.617Z,5.60
2022-12-22T22:14:08.032Z,7.30
2022-12-22T22:16:54.315Z,7.40
2022-12-22T22:19:40.470Z,5.90
2022-12-22T22:22:26.947Z,6.50
2022-12-22T22:25:13.789Z,8.30
2022-12-22T22:28:00.100Z,7.40
2022-12-22T22:30:46.391Z,6.10
2022-12-22T22:33:32.825Z,4.30
2022-12-22T22:36:19.117Z,6.30
2022-12-22T22:39:05.264Z,6.20
2022-12-22T22:41:51.586Z,8.00
2022-12-22T22:44:38.082Z,5.90
2022-12-22T22:47:24.880Z,5.80
2022-12-22T22:50:11.198Z,7.00
2022-12-22T22:52:57.856Z,8.60
2022-12-22T22:55:44.505Z,8.10
2022-12-22T22:58:30.942Z,5.90
2022-12-22T23:01:17.300Z,6.80
2022-12-22T23:04:04.096Z,7.60
2022-12-22T23:06:50.354Z,7.40
2022-12-22T23:09:36.831Z,8.00
2022-12-22T23:12:23.354Z,6.50
2022-12-22T23:15:09.997Z,6.20
2022-12-22T23:17:56.441Z,9.40
2022-12-22T23:20:45.621Z,6.40
2022-12-22T23:23:32.396Z,6.00
2022-12-22T23:26:19.002Z,5.60
2022-12-22T23:29:05.979Z,6.40
2022-12-22T23:31:52.696Z,6.20
2022-12-22T23:34:39.211Z,5.30
2022-12-22T23:37:25.422Z,5.30
2022-12-22T23:40:41.857Z,5.70
2022-12-22T23:43:18.649Z,5.80
2022-12-22T23:46:15.333Z,6.50
2022-12-22T23:49:02.098Z,8.60
2022-12-22T23:51:48.565Z,7.90
2022-12-22T23:54:35.101Z,8.70
2022-12-22T23:57:21.332Z,7.40
